createdAt,value
2022-12-17T00:01:54.182Z,8.80
2022-12-17T00:04:41.198Z,6.20
2022-12-17T00:07:35.439Z,6.30
2022-12-17T00:10:22.507Z,6.90
2022-12-17T00:13:09.237Z,6.60
2022-12-17T00:15:56.464Z,5.50
2022-12-17T00:18:43.594Z,6.60
2022-12-17T00:21:30.082Z,5.20
2022-12-17T00:24:16.821Z,4.70
2022-12-17T00:27:03.352Z,4.90
2022-12-17T00:29:50.071Z,4.00
2022-12-17T00:32:38.256Z,3.70
2022-12-17T00:35:25.339Z,4.30
2022-12-17T00:38:11.737Z,4.60
2022-12-17T00:40:58.610Z,4.90
2022-12-17T00:43:45.392Z,5.20
2022-12-17T00:46:32.126Z,6.00
2022-12-17T00:49:18.771Z,6.30
2022-12-17T00:52:05.473Z,5.80
2022-12-17T00:54:52.410Z,6.00
2022-12-17T00:57:38.976Z,6.10
2022-12-17T01:00:26.154Z,5.80
2022-12-17T01:03:12.894Z,6.10
2022-12-17T01:05:59.510Z,5.60
2022-12-17T01:08:47.113Z,6.10
2022-12-17T01:11:34.261Z,6.10
2022-12-17T01:14:20.948Z,5.60
2022-12-17T01:17:07.709Z,5.70
2022-12-17T01:19:54.494Z,6.50
2022-12-17T01:22:43.360Z,6.40
2022-12-17T01:25:29.924Z,5.80
2022-12-17T01:28:18.347Z,6.20
2022-12-17T01:31:07.821Z,6.60
2022-12-17T01:33:54.843Z,5.70
2022-12-17T01:36:41.687Z,6.20
2022-12-17T01:39:28.406Z,6.60
2022-12-17T01:42:15.127Z,6.50
2022-12-17T01:45:15.681Z,6.80
2022-12-17T01:48:11.447Z,7.20
2022-12-17T01:51:02.182Z,6.80
2022-12-17T01:53:54.123Z,7.10
2022-12-17T01:56:45.297Z,7.60
2022-12-17T01:59:33.196Z,8.90
2022-12-17T02:02:19.673Z,14.40
2022-12-17T02:05:06.510Z,14.70
2022-12-17T02:08:08.547Z,13.80
2022-12-17T02:11:03.303Z,14.50
2022-12-17T02:13:56.150Z,15.60
2022-12-17T02:16:50.352Z,16.20
2022-12-17T02:19:59.042Z,16.90
2022-12-17T02:22:58.921Z,14.40
2022-12-17T02:26:19.466Z,12.70
2022-12-17T02:29:09.819Z,12.40
2022-12-17T02:31:59.707Z,8.80
2022-12-17T02:34:46.781Z,9.90
2022-12-17T02:37:34.186Z,9.60
2022-12-17T02:40:24.367Z,9.60
2022-12-17T02:43:11.302Z,9.30
2022-12-17T02:45:58.895Z,9.20
2022-12-17T02:48:46.458Z,8.60
2022-12-17T02:51:33.975Z,9.00
2022-12-17T02:54:22.882Z,8.70
2022-12-17T02:57:09.663Z,9.90
2022-12-17T02:59:56.065Z,7.30
2022-12-17T03:02:43.516Z,7.60
2022-12-17T03:05:46.163Z,8.20
2022-12-17T03:08:33.040Z,8.60
2022-12-17T03:11:19.730Z,7.80
2022-12-17T03:14:06.283Z,8.80
2022-12-17T03:16:52.980Z,8.40
2022-12-17T03:19:39.486Z,8.80
2022-12-17T03:22:26.038Z,9.20
2022-12-17T03:25:12.747Z,8.70
2022-12-17T03:27:59.477Z,8.40
2022-12-17T03:30:49.167Z,8.70
2022-12-17T03:33:36.387Z,8.00
2022-12-17T03:36:23.154Z,9.00
2022-12-17T03:39:09.807Z,9.10
2022-12-17T03:41:56.546Z,8.40
2022-12-17T03:44:43.482Z,9.40
2022-12-17T03:47:30.053Z,9.20
2022-12-17T03:50:17.029Z,10.50
2022-12-17T03:53:03.649Z,11.90
2022-12-17T03:55:50.288Z,11.00
2022-12-17T03:58:36.865Z,12.00
2022-12-17T04:01:23.966Z,11.10
2022-12-17T04:04:10.880Z,11.00
2022-12-17T04:06:57.714Z,9.60
2022-12-17T04:09:44.485Z,9.30
2022-12-17T04:12:30.948Z,10.50
2022-12-17T04:15:17.523Z,10.10
2022-12-17T04:18:04.280Z,10.70
2022-12-17T04:20:50.984Z,10.90
2022-12-17T04:23:37.872Z,10.10
2022-12-17T04:26:27.946Z,9.70
2022-12-17T04:29:14.510Z,10.50
2022-12-17T04:32:01.756Z,10.40
2022-12-17T04:34:48.570Z,8.80
2022-12-17T04:37:35.239Z,10.20
2022-12-17T04:40:21.958Z,10.80
2022-12-17T04:43:08.717Z,10.70
2022-12-17T04:45:56.661Z,10.50
2022-12-17T04:48:43.427Z,13.20
2022-12-17T04:51:30.332Z,15.20
2022-12-17T04:54:18.069Z,14.20
2022-12-17T04:57:04.799Z,13.30
2022-12-17T04:59:51.355Z,16.40
2022-12-17T05:02:42.509Z,15.40
2022-12-17T05:05:30.079Z,16.40
2022-12-17T05:08:17.138Z,15.60
2022-12-17T05:11:03.744Z,13.40
2022-12-17T05:13:50.450Z,13.50
2022-12-17T05:16:37.007Z,15.70
2022-12-17T05:19:23.612Z,14.20
2022-12-17T05:22:13.401Z,16.00
2022-12-17T05:25:00.264Z,15.60
2022-12-17T05:27:46.916Z,19.60
2022-12-17T05:30:33.571Z,36.70
2022-12-17T05:33:21.804Z,32.10
2022-12-17T05:36:08.219Z,19.10
2022-12-17T05:38:57.392Z,15.90
2022-12-17T05:41:44.032Z,22.50
2022-12-17T05:44:30.629Z,17.70
2022-12-17T05:47:17.306Z,14.40
2022-12-17T05:50:04.097Z,10.70
2022-12-17T05:52:50.798Z,10.00
2022-12-17T05:55:37.280Z,12.10
2022-12-17T05:58:25.858Z,12.30
2022-12-17T06:01:17.106Z,13.90
2022-12-17T06:04:03.889Z,13.00
2022-12-17T06:06:51.076Z,13.10
2022-12-17T06:09:38.437Z,11.00
2022-12-17T06:12:25.337Z,11.20
2022-12-17T06:15:12.226Z,9.60
2022-12-17T06:18:16.300Z,11.60
2022-12-17T06:21:04.374Z,11.80
2022-12-17T06:23:51.183Z,12.50
2022-12-17T06:26:39.005Z,10.00
2022-12-17T06:29:25.435Z,9.90
2022-12-17T06:32:12.269Z,11.70
2022-12-17T06:34:59.007Z,11.10
2022-12-17T06:37:45.657Z,11.40
2022-12-17T06:40:32.328Z,12.20
2022-12-17T06:43:18.918Z,6.80
2022-12-17T06:46:05.624Z,12.40
2022-12-17T06:48:52.289Z,10.10
2022-12-17T06:51:38.815Z,8.90
2022-12-17T06:54:25.491Z,9.30
2022-12-17T06:57:12.144Z,10.10
2022-12-17T06:59:58.838Z,9.80
2022-12-17T07:02:45.597Z,11.10
2022-12-17T07:05:32.556Z,12.00
2022-12-17T07:08:19.754Z,13.70
2022-12-17T07:11:06.302Z,12.70
2022-12-17T07:13:53.171Z,14.70
2022-12-17T07:16:40.361Z,12.90
2022-12-17T07:19:27.713Z,10.70
2022-12-17T07:22:14.489Z,10.70
2022-12-17T07:25:01.043Z,11.20
2022-12-17T07:27:47.602Z,10.90
2022-12-17T07:30:34.216Z,11.80
2022-12-17T07:33:26.002Z,10.40
2022-12-17T07:36:13.759Z,10.60
2022-12-17T07:39:00.285Z,11.60
2022-12-17T07:41:46.859Z,12.70
2022-12-17T07:44:33.946Z,12.80
2022-12-17T07:47:37.483Z,12.80
2022-12-17T07:50:24.339Z,13.50
2022-12-17T07:53:21.633Z,13.50
2022-12-17T07:56:08.614Z,13.90
2022-12-17T07:58:55.465Z,13.60
2022-12-17T08:01:42.362Z,12.70
2022-12-17T08:04:28.911Z,13.10
2022-12-17T08:07:15.459Z,13.30
2022-12-17T08:10:02.190Z,12.90
2022-12-17T08:12:49.343Z,13.10
2022-12-17T08:15:36.083Z,14.00
2022-12-17T08:18:26.706Z,14.40
2022-12-17T08:21:13.506Z,13.50
2022-12-17T08:24:00.108Z,14.10
2022-12-17T08:26:48.301Z,13.60
2022-12-17T08:29:34.973Z,14.40
2022-12-17T08:32:21.667Z,13.60
2022-12-17T08:35:08.676Z,14.20
2022-12-17T08:37:55.226Z,14.10
2022-12-17T08:40:41.927Z,14.50
2022-12-17T08:43:28.592Z,15.10
2022-12-17T08:46:15.304Z,13.80
2022-12-17T08:49:02.960Z,13.80
2022-12-17T08:51:49.875Z,12.00
2022-12-17T08:54:36.612Z,11.20
2022-12-17T08:57:31.515Z,10.70
2022-12-17T09:00:19.206Z,11.70
2022-12-17T09:03:05.975Z,11.80
2022-12-17T09:05:52.775Z,11.60
2022-12-17T09:08:39.495Z,11.40
2022-12-17T09:11:25.947Z,10.90
2022-12-17T09:14:12.599Z,11.10
2022-12-17T09:16:59.349Z,10.30
2022-12-17T09:19:45.995Z,9.80
2022-12-17T09:22:32.771Z,9.30
2022-12-17T09:25:19.560Z,9.00
2022-12-17T09:28:06.192Z,8.00
2022-12-17T09:30:53.241Z,7.20
2022-12-17T09:33:41.017Z,7.00
2022-12-17T09:36:28.087Z,7.60
2022-12-17T09:39:14.934Z,7.40
2022-12-17T09:42:11.877Z,6.40
2022-12-17T09:45:09.970Z,6.50
2022-12-17T09:48:02.869Z,5.80
2022-12-17T09:50:49.365Z,5.70
2022-12-17T09:53:55.051Z,5.20
2022-12-17T09:56:45.853Z,3.90
2022-12-17T09:59:40.473Z,3.50
2022-12-17T10:02:39.261Z,3.50
2022-12-17T10:05:53.877Z,2.30
2022-12-17T10:08:40.531Z,3.00
2022-12-17T10:11:48.569Z,2.80
2022-12-17T10:14:40.015Z,3.20
2022-12-17T10:17:39.214Z,2.70
2022-12-17T10:20:52.347Z,2.90
2022-12-17T10:23:45.833Z,2.00
2022-12-17T10:26:53.804Z,2.10
2022-12-17T10:29:47.666Z,2.30
2022-12-17T10:32:34.917Z,1.90
2022-12-17T10:35:32.853Z,2.10
2022-12-17T10:38:20.840Z,2.50
2022-12-17T10:41:07.681Z,1.90
2022-12-17T10:43:57.925Z,2.10
2022-12-17T10:46:50.265Z,2.30
2022-12-17T10:49:44.090Z,2.00
2022-12-17T10:52:48.364Z,1.70
2022-12-17T10:55:47.541Z,1.90
2022-12-17T10:58:55.379Z,2.00
2022-12-17T11:01:44.727Z,1.90
2022-12-17T11:04:57.646Z,2.10
2022-12-17T11:07:56.383Z,2.60
2022-12-17T11:10:47.200Z,2.90
2022-12-17T11:13:58.914Z,3.20
2022-12-17T11:16:53.917Z,2.90
2022-12-17T11:20:14.189Z,2.50
2022-12-17T11:23:04.097Z,2.60
2022-12-17T11:25:59.985Z,2.70
2022-12-17T11:28:49.334Z,2.70
2022-12-17T11:31:36.168Z,3.00
2022-12-17T11:34:52.105Z,2.80
2022-12-17T11:37:41.666Z,2.70
2022-12-17T11:40:40.293Z,3.00
2022-12-17T11:43:46.311Z,2.60
2022-12-17T11:46:33.197Z,2.10
2022-12-17T11:49:28.736Z,2.30
2022-12-17T11:52:34.750Z,2.00
2022-12-17T11:56:05.003Z,2.10
2022-12-17T11:59:04.917Z,1.60
2022-12-17T12:02:03.642Z,2.50
2022-12-17T12:04:50.512Z,2.50
2022-12-17T12:07:54.524Z,2.40
2022-12-17T12:10:47.282Z,3.10
2022-12-17T12:13:56.359Z,2.70
2022-12-17T12:17:16.442Z,2.90
2022-12-17T12:20:13.288Z,3.10
2022-12-17T12:23:17.371Z,3.70
2022-12-17T12:26:04.206Z,3.70
2022-12-17T12:29:12.680Z,3.80
2022-12-17T12:32:05.309Z,4.20
2022-12-17T12:34:56.945Z,3.80
2022-12-17T12:37:54.475Z,4.00
2022-12-17T12:40:57.893Z,4.60
2022-12-17T12:43:52.029Z,5.40
2022-12-17T12:47:00.304Z,5.10
2022-12-17T12:50:15.416Z,5.00
2022-12-17T12:53:22.249Z,4.90
2022-12-17T13:01:53.311Z,4.50
2022-12-17T13:04:58.476Z,5.20
2022-12-17T13:07:29.918Z,5.20
2022-12-17T13:09:59.598Z,5.50
2022-12-17T13:12:46.137Z,4.90
2022-12-17T13:15:30.165Z,4.70
2022-12-17T13:18:19.488Z,4.40
2022-12-17T13:21:23.443Z,3.70
2022-12-17T13:23:51.735Z,4.70
2022-12-17T13:26:42.988Z,3.20
2022-12-17T13:29:21.557Z,4.30
2022-12-17T13:32:31.661Z,4.90
2022-12-17T13:35:27.258Z,4.40
2022-12-17T13:40:48.900Z,4.50
2022-12-17T13:43:21.303Z,3.60
2022-12-17T13:45:51.669Z,3.40
2022-12-17T13:48:23.217Z,4.20
2022-12-17T13:51:03.588Z,4.80
2022-12-17T13:53:35.582Z,4.60
2022-12-17T13:56:03.969Z,4.40
2022-12-17T13:58:33.978Z,4.40
2022-12-17T14:01:15.637Z,4.20
2022-12-17T14:04:06.235Z,3.40
2022-12-17T14:06:38.212Z,4.60
2022-12-17T14:09:07.232Z,2.40
2022-12-17T14:11:56.397Z,4.90
2022-12-17T14:14:30.854Z,3.00
2022-12-17T14:16:59.486Z,5.20
2022-12-17T14:19:29.618Z,4.80
2022-12-17T14:21:58.321Z,4.20
2022-12-17T14:24:29.735Z,5.20
2022-12-17T14:27:00.849Z,5.70
2022-12-17T14:29:31.702Z,4.80
2022-12-17T14:32:02.945Z,4.50
2022-12-17T14:34:41.617Z,3.00
2022-12-17T14:37:20.361Z,5.50
2022-12-17T14:39:49.431Z,6.10
2022-12-17T14:42:29.893Z,5.60
2022-12-17T14:45:00.727Z,4.90
2022-12-17T14:47:36.140Z,5.00
2022-12-17T14:50:07.726Z,7.20
2022-12-17T14:52:41.572Z,7.10
2022-12-17T14:55:24.872Z,7.70
2022-12-17T14:58:06.100Z,2.80
2022-12-17T15:00:37.637Z,4.40
2022-12-17T15:03:06.940Z,4.60
2022-12-17T15:05:35.436Z,4.50
2022-12-17T15:08:05.509Z,5.30
2022-12-17T15:10:33.688Z,7.40
2022-12-17T15:13:02.143Z,5.50
2022-12-17T15:15:30.399Z,7.50
2022-12-17T15:17:59.383Z,4.20
2022-12-17T15:20:27.688Z,7.20
2022-12-17T15:22:55.791Z,5.20
2022-12-17T15:25:23.908Z,7.50
2022-12-17T15:27:52.492Z,7.40
2022-12-17T15:30:20.715Z,7.30
2022-12-17T15:32:49.216Z,9.10
2022-12-17T15:35:17.544Z,8.30
2022-12-17T15:37:45.831Z,8.50
2022-12-17T15:40:14.225Z,7.40
2022-12-17T15:43:06.162Z,7.90
2022-12-17T15:45:34.722Z,7.90
2022-12-17T15:48:03.408Z,8.00
2022-12-17T15:50:32.046Z,7.80
2022-12-17T15:53:00.471Z,8.90
2022-12-17T15:55:29.652Z,10.10
2022-12-17T15:57:58.819Z,9.90
2022-12-17T16:00:29.121Z,9.60
2022-12-17T16:02:59.189Z,10.10
2022-12-17T16:05:28.308Z,9.10
2022-12-17T16:07:59.297Z,9.90
2022-12-17T16:10:27.511Z,9.30
2022-12-17T16:12:55.471Z,9.70
2022-12-17T16:15:23.521Z,10.30
2022-12-17T16:17:53.097Z,10.10
2022-12-17T16:20:21.364Z,10.40
2022-12-17T16:22:50.170Z,11.00
2022-12-17T16:25:18.978Z,9.50
2022-12-17T16:27:47.282Z,9.70
2022-12-17T16:30:15.608Z,9.70
2022-12-17T16:32:43.829Z,10.10
2022-12-17T16:35:12.054Z,9.60
2022-12-17T16:37:40.426Z,9.40
2022-12-17T16:40:09.806Z,11.20
2022-12-17T16:42:38.851Z,9.30
2022-12-17T16:45:07.693Z,11.00
2022-12-17T16:47:36.034Z,11.00
2022-12-17T16:50:04.998Z,10.20
2022-12-17T16:52:34.110Z,9.90
2022-12-17T16:55:02.731Z,11.40
2022-12-17T16:57:31.150Z,7.10
2022-12-17T16:59:59.708Z,9.00
2022-12-17T17:02:28.207Z,9.20
2022-12-17T17:04:56.415Z,9.30
2022-12-17T17:07:24.691Z,9.80
2022-12-17T17:09:52.721Z,9.90
2022-12-17T17:12:21.095Z,10.60
2022-12-17T17:14:49.348Z,11.20
2022-12-17T17:17:17.757Z,10.40
2022-12-17T17:19:46.165Z,9.00
2022-12-17T17:22:14.505Z,9.50
2022-12-17T17:24:42.510Z,8.50
2022-12-17T17:27:10.764Z,9.90
2022-12-17T17:29:39.070Z,9.60
2022-12-17T17:32:11.357Z,9.60
2022-12-17T17:34:41.212Z,11.70
2022-12-17T17:37:09.438Z,13.00
2022-12-17T17:39:37.577Z,11.20
2022-12-17T17:42:06.292Z,12.70
2022-12-17T17:44:35.036Z,11.60
2022-12-17T17:47:03.454Z,10.30
2022-12-17T17:49:31.802Z,11.00
2022-12-17T17:52:15.386Z,10.00
2022-12-17T17:54:43.745Z,9.60
2022-12-17T17:57:12.172Z,10.90
2022-12-17T17:59:40.392Z,11.20
2022-12-17T18:02:11.252Z,9.70
2022-12-17T18:04:40.221Z,9.30
2022-12-17T18:07:24.778Z,11.60
2022-12-17T18:09:54.548Z,4.80
2022-12-17T18:12:41.493Z,11.30
2022-12-17T18:15:15.209Z,11.60
2022-12-17T18:17:46.939Z,8.90
2022-12-17T18:20:16.572Z,12.60
2022-12-17T18:22:46.760Z,12.80
2022-12-17T18:25:16.586Z,13.70
2022-12-17T18:27:45.561Z,13.30
2022-12-17T18:30:16.419Z,12.70
2022-12-17T18:32:45.521Z,12.80
2022-12-17T18:35:13.596Z,12.70
2022-12-17T18:37:42.126Z,9.80
2022-12-17T18:40:10.948Z,14.00
2022-12-17T18:42:57.797Z,11.10
2022-12-17T18:45:26.224Z,15.50
2022-12-17T18:47:54.627Z,12.20
2022-12-17T18:50:22.822Z,13.40
2022-12-17T18:52:51.082Z,14.60
2022-12-17T18:55:19.052Z,16.00
2022-12-17T18:57:47.420Z,14.70
2022-12-17T19:00:15.653Z,16.70
2022-12-17T19:02:44.683Z,17.80
2022-12-17T19:05:13.090Z,17.50
2022-12-17T19:07:41.320Z,16.90
2022-12-17T19:10:09.935Z,15.70
2022-12-17T19:12:38.029Z,13.80
2022-12-17T19:15:06.529Z,16.60
2022-12-17T19:17:34.800Z,13.70
2022-12-17T19:20:02.919Z,18.20
2022-12-17T19:22:30.993Z,17.40
2022-12-17T19:24:59.018Z,17.50
2022-12-17T19:27:27.355Z,18.50
2022-12-17T19:29:57.188Z,16.50
2022-12-17T19:32:25.906Z,11.50
2022-12-17T19:34:54.332Z,16.10
2022-12-17T19:37:22.546Z,7.50
2022-12-17T19:39:50.811Z,9.60
2022-12-17T19:42:25.112Z,15.90
2022-12-17T19:44:55.197Z,16.10
2022-12-17T19:47:24.213Z,16.70
2022-12-17T19:49:52.321Z,18.20
2022-12-17T19:52:20.659Z,18.30
2022-12-17T19:54:49.929Z,8.10
2022-12-17T19:57:18.785Z,18.40
2022-12-17T19:59:47.296Z,7.90
2022-12-17T20:02:17.438Z,15.50
2022-12-17T20:04:46.124Z,8.10
2022-12-17T20:07:14.331Z,10.10
2022-12-17T20:09:44.797Z,8.00
2022-12-17T20:12:13.429Z,17.60
2022-12-17T20:14:41.620Z,8.40
2022-12-17T20:17:10.021Z,9.70
2022-12-17T20:19:38.764Z,12.00
2022-12-17T20:22:07.173Z,18.30
2022-12-17T20:24:37.515Z,19.00
2022-12-17T20:27:06.526Z,14.70
2022-12-17T20:29:34.700Z,16.60
2022-12-17T20:32:03.223Z,6.80
2022-12-17T20:34:31.979Z,12.80
2022-12-17T20:37:00.001Z,17.70
2022-12-17T20:39:28.606Z,15.60
2022-12-17T20:41:57.522Z,14.70
2022-12-17T20:44:26.338Z,15.40
2022-12-17T20:46:54.740Z,16.40
2022-12-17T20:49:22.979Z,14.50
2022-12-17T20:51:51.000Z,12.10
2022-12-17T20:54:19.116Z,20.30
2022-12-17T20:56:47.264Z,14.00
2022-12-17T20:59:17.255Z,8.30
2022-12-17T21:01:51.490Z,12.70
2022-12-17T21:04:21.224Z,19.20
2022-12-17T21:06:49.226Z,13.60
2022-12-17T21:09:20.238Z,18.00
2022-12-17T21:11:49.077Z,7.10
2022-12-17T21:14:18.703Z,13.90
2022-12-17T21:16:47.849Z,16.00
2022-12-17T21:19:18.909Z,17.30
2022-12-17T21:21:47.216Z,19.60
2022-12-17T21:24:15.992Z,21.90
2022-12-17T21:26:47.345Z,16.10
2022-12-17T21:29:16.146Z,21.30
2022-12-17T21:31:50.090Z,13.10
2022-12-17T21:34:21.965Z,14.10
2022-12-17T21:36:50.757Z,21.30
2022-12-17T21:39:19.784Z,12.90
2022-12-17T21:42:08.157Z,19.30
2022-12-17T21:44:36.487Z,11.20
2022-12-17T21:47:04.796Z,21.50
2022-12-17T21:49:32.973Z,12.30
2022-12-17T21:52:02.351Z,19.00
2022-12-17T21:54:30.328Z,8.40
2022-12-17T21:56:58.374Z,21.50
2022-12-17T21:59:26.757Z,23.60
2022-12-17T22:01:57.688Z,15.30
2022-12-17T22:04:26.614Z,13.60
2022-12-17T22:07:00.242Z,17.90
2022-12-17T22:10:04.113Z,21.00
2022-12-17T22:12:49.745Z,21.00
2022-12-17T22:15:18.291Z,20.00
2022-12-17T22:17:47.109Z,20.20
2022-12-17T22:20:18.808Z,19.60
2022-12-17T22:22:47.359Z,21.50
2022-12-17T22:25:16.353Z,21.40
2022-12-17T22:27:44.579Z,22.40
2022-12-17T22:30:34.616Z,23.10
2022-12-17T22:33:05.670Z,18.50
2022-12-17T22:38:45.001Z,18.60
2022-12-17T22:41:13.060Z,19.00
2022-12-17T22:44:34.290Z,18.10
2022-12-17T22:47:21.550Z,18.70
2022-12-17T22:49:49.710Z,19.30
2022-12-17T22:52:18.801Z,12.00
2022-12-17T22:54:48.459Z,13.30
2022-12-17T22:57:35.942Z,12.60
2022-12-17T23:00:20.919Z,19.60
2022-12-17T23:02:52.832Z,7.20
2022-12-17T23:05:26.058Z,13.50
2022-12-17T23:07:55.247Z,17.70
2022-12-17T23:10:25.050Z,9.90
2022-12-17T23:12:55.218Z,17.70
2022-12-17T23:15:36.682Z,9.60
2022-12-17T23:18:07.484Z,11.70
2022-12-17T23:20:37.114Z,17.80
2022-12-17T23:23:05.272Z,20.50
2022-12-17T23:25:33.529Z,8.70
2022-12-17T23:28:01.670Z,9.00
2022-12-17T23:30:30.144Z,13.90
2022-12-17T23:32:58.171Z,7.40
2022-12-17T23:35:26.293Z,13.80
2022-12-17T23:37:55.350Z,12.10
2022-12-17T23:40:23.776Z,8.10
2022-12-17T23:42:51.845Z,22.00
2022-12-17T23:45:19.979Z,13.50
2022-12-17T23:47:48.038Z,19.10
2022-12-17T23:50:16.190Z,11.30
2022-12-17T23:52:44.385Z,14.70
2022-12-17T23:55:12.350Z,12.90
2022-12-17T23:57:40.468Z,18.70
